createdAt,value
2023-03-16T00:04:52.288Z,248.26
2023-03-16T00:10:24.296Z,248.07
2023-03-16T00:15:56.666Z,249.58
2023-03-16T00:21:28.915Z,249.39
2023-03-16T00:27:01.082Z,250.92
2023-03-16T00:32:33.285Z,253.24
2023-03-16T00:38:05.600Z,253.05
2023-03-16T00:43:37.683Z,254.82
2023-03-16T00:49:10.074Z,255.01
2023-03-16T00:54:42.471Z,254.42
2023-03-16T01:00:14.813Z,256.61
2023-03-16T01:05:47.000Z,256.41
2023-03-16T01:11:19.213Z,251.88
2023-03-16T01:16:51.534Z,245.66
2023-03-16T01:22:23.943Z,240.09
2023-03-16T01:27:55.960Z,237.82
2023-03-16T01:33:28.212Z,234.93
2023-03-16T01:39:00.508Z,232.93
2023-03-16T01:44:32.996Z,230.15
2023-03-16T01:50:05.086Z,226.03
2023-03-16T01:55:37.369Z,226.65
2023-03-16T02:01:09.669Z,228.23
2023-03-16T02:06:41.849Z,227.91
2023-03-16T02:12:13.865Z,229.19
2023-03-16T02:17:45.608Z,226.34
2023-03-16T02:23:18.132Z,225.56
2023-03-16T02:25:30.264Z,223.72
2023-03-16T02:31:01.587Z,226.03
2023-03-16T02:36:33.346Z,225.87
2023-03-16T02:42:05.308Z,226.03
2023-03-16T02:47:37.413Z,227.60
2023-03-16T02:53:09.867Z,228.71
2023-03-16T02:58:41.965Z,231.12
2023-03-16T03:04:13.502Z,232.27
2023-03-16T03:09:45.651Z,239.56
2023-03-16T03:15:18.006Z,244.02
2023-03-16T03:20:49.865Z,246.77
2023-03-16T03:26:21.588Z,249.96
2023-03-16T03:31:53.447Z,250.92
2023-03-16T03:37:25.748Z,250.15
2023-03-16T03:42:57.971Z,254.23
2023-03-16T03:48:30.251Z,252.66
2023-03-16T03:54:02.359Z,255.61
2023-03-16T03:59:34.397Z,258.43
2023-03-16T04:05:06.749Z,262.36
2023-03-16T04:10:38.891Z,259.66
2023-03-16T04:16:11.515Z,259.86
2023-03-16T04:21:43.462Z,260.27
2023-03-16T04:27:15.226Z,257.82
2023-03-16T04:32:47.573Z,256.21
2023-03-16T04:38:19.852Z,257.62
2023-03-16T04:43:52.138Z,255.21
2023-03-16T04:49:24.707Z,253.83
2023-03-16T04:54:56.690Z,253.83
2023-03-16T05:00:29.098Z,249.77
2023-03-16T05:06:01.349Z,249.77
2023-03-16T05:11:32.975Z,249.39
2023-03-16T05:17:05.294Z,251.88
2023-03-16T05:22:37.424Z,249.96
2023-03-16T05:28:09.093Z,250.35
2023-03-16T05:33:41.140Z,250.15
2023-03-16T05:39:13.327Z,252.46
2023-03-16T05:44:45.687Z,249.58
2023-03-16T05:50:17.794Z,250.35
2023-03-16T05:55:49.661Z,248.26
2023-03-16T06:01:21.862Z,243.83
2023-03-16T06:06:54.328Z,241.32
2023-03-16T06:12:26.358Z,237.82
2023-03-16T06:18:04.078Z,232.10
2023-03-16T06:23:35.818Z,229.51
2023-03-16T06:29:07.648Z,228.23
2023-03-16T06:34:40.257Z,233.59
2023-03-16T06:40:12.209Z,239.04
2023-03-16T06:45:44.135Z,243.47
2023-03-16T06:51:17.606Z,246.40
2023-03-16T06:56:49.861Z,253.05
2023-03-16T07:02:22.167Z,253.44
2023-03-16T07:07:54.218Z,258.84
2023-03-16T07:13:26.174Z,261.94
2023-03-16T07:18:58.223Z,264.90
2023-03-16T07:24:30.225Z,264.68
2023-03-16T07:30:02.242Z,265.54
2023-03-16T07:35:34.239Z,265.54
2023-03-16T07:41:06.066Z,272.60
2023-03-16T07:46:37.680Z,272.15
2023-03-16T07:52:09.817Z,263.62
2023-03-16T07:57:41.620Z,267.27
2023-03-16T08:03:13.375Z,263.41
2023-03-16T08:08:45.087Z,262.57
2023-03-16T08:14:16.826Z,260.07
2023-03-16T08:19:48.458Z,255.41
2023-03-16T08:25:20.817Z,261.10
2023-03-16T08:30:53.093Z,250.92
2023-03-16T08:36:24.929Z,252.46
2023-03-16T08:41:56.901Z,253.64
2023-03-16T08:47:29.164Z,253.64
2023-03-16T08:53:01.456Z,251.69
2023-03-16T08:58:33.951Z,253.05
2023-03-16T09:04:06.268Z,252.46
2023-03-16T09:09:38.046Z,255.21
2023-03-16T09:15:09.861Z,254.82
2023-03-16T09:20:41.636Z,251.30
2023-03-16T09:26:13.800Z,256.01
2023-03-16T09:31:45.918Z,257.62
2023-03-16T09:37:17.653Z,257.01
2023-03-16T09:43:12.856Z,266.84
2023-03-16T09:48:44.759Z,268.36
2023-03-16T09:54:16.542Z,265.76
2023-03-16T09:59:48.122Z,264.47
2023-03-16T10:05:20.150Z,264.05
2023-03-16T10:10:51.905Z,261.94
2023-03-16T10:16:23.881Z,260.27
2023-03-16T10:21:55.908Z,260.69
2023-03-16T10:27:27.742Z,257.82
2023-03-16T10:32:59.617Z,255.21
2023-03-16T10:38:31.915Z,258.02
2023-03-16T10:44:04.246Z,260.69
2023-03-16T10:49:36.357Z,261.73
2023-03-16T10:55:08.350Z,264.47
2023-03-16T11:00:40.326Z,263.20
2023-03-16T11:06:12.074Z,263.41
2023-03-16T11:11:44.110Z,264.47
2023-03-16T11:17:21.921Z,263.83
2023-03-16T11:22:53.610Z,264.47
2023-03-16T11:25:17.828Z,263.83
2023-03-16T11:30:49.567Z,269.24
2023-03-16T11:36:21.566Z,267.49
2023-03-16T11:41:53.844Z,268.36
2023-03-16T11:47:25.776Z,267.71
2023-03-16T11:52:57.376Z,267.49
2023-03-16T11:58:29.357Z,265.97
2023-03-16T12:06:22.866Z,268.58
2023-03-16T12:11:46.877Z,270.80
2023-03-16T12:17:18.805Z,270.80
2023-03-16T12:22:50.711Z,270.80
2023-03-16T12:28:22.502Z,270.35
2023-03-16T12:33:54.272Z,269.69
2023-03-16T12:39:25.928Z,265.11
2023-03-16T12:44:57.854Z,267.05
2023-03-16T12:50:29.758Z,265.11
2023-03-16T12:56:01.521Z,265.97
2023-03-16T13:01:33.432Z,265.33
2023-03-16T13:07:05.599Z,262.99
2023-03-16T13:12:37.261Z,264.68
2023-03-16T13:18:09.347Z,261.52
2023-03-16T13:23:41.299Z,261.10
2023-03-16T13:29:13.092Z,261.52
2023-03-16T13:34:45.136Z,262.99
2023-03-16T13:40:17.067Z,262.15
2023-03-16T13:45:48.793Z,264.26
2023-03-16T13:51:21.190Z,264.47
2023-03-16T13:56:53.039Z,262.57
2023-03-16T14:02:24.776Z,258.23
2023-03-16T14:07:56.516Z,256.81
2023-03-16T14:13:28.291Z,256.41
2023-03-16T14:18:59.898Z,253.24
2023-03-16T14:24:31.262Z,257.82
2023-03-16T14:30:03.098Z,253.24
2023-03-16T14:35:34.704Z,253.24
2023-03-16T14:41:06.341Z,258.23
2023-03-16T14:46:38.283Z,258.84
2023-03-16T14:52:10.265Z,257.21
2023-03-16T14:57:42.002Z,255.81
2023-03-16T15:03:13.845Z,253.24
2023-03-16T15:08:45.668Z,250.92
2023-03-16T15:14:17.302Z,252.85
2023-03-16T15:19:49.260Z,253.83
2023-03-16T15:25:21.150Z,250.73
2023-03-16T15:30:53.085Z,249.96
2023-03-16T15:36:24.638Z,249.58
2023-03-16T15:41:56.389Z,249.39
2023-03-16T15:47:28.416Z,245.84
2023-03-16T15:53:00.752Z,247.51
2023-03-16T15:58:32.774Z,249.77
2023-03-16T16:04:04.890Z,250.54
2023-03-16T16:09:36.611Z,248.45
2023-03-16T16:15:08.392Z,248.45
2023-03-16T16:20:40.163Z,248.07
2023-03-16T16:26:12.183Z,251.11
2023-03-16T16:31:43.641Z,250.73
2023-03-16T16:37:15.556Z,249.39
2023-03-16T16:42:47.347Z,250.73
2023-03-16T16:48:19.283Z,252.46
2023-03-16T16:53:51.120Z,251.50
2023-03-16T16:59:22.721Z,251.88
2023-03-16T17:04:54.671Z,248.83
2023-03-16T17:10:26.407Z,248.26
2023-03-16T17:15:58.192Z,246.77
2023-03-16T17:21:30.495Z,247.14
2023-03-16T17:27:02.820Z,246.95
2023-03-16T17:32:34.872Z,247.70
2023-03-16T17:38:06.728Z,251.11
2023-03-16T17:43:38.707Z,250.73
2023-03-16T17:49:10.831Z,257.01
2023-03-16T17:54:42.982Z,253.83
2023-03-16T18:00:14.710Z,254.42
2023-03-16T18:05:46.795Z,258.02
2023-03-16T18:11:18.914Z,258.63
2023-03-16T18:16:51.194Z,258.63
2023-03-16T18:22:22.920Z,260.27
2023-03-16T18:28:18.065Z,272.60
2023-03-16T18:33:50.133Z,273.74
2023-03-16T18:39:21.857Z,273.28
2023-03-16T18:44:54.268Z,272.83
2023-03-16T18:50:26.316Z,269.47
2023-03-16T18:55:58.161Z,270.58
2023-03-16T19:01:30.642Z,271.92
2023-03-16T19:07:03.181Z,269.47
2023-03-16T19:12:34.890Z,270.80
2023-03-16T19:18:07.023Z,271.92
2023-03-16T19:23:39.365Z,273.51
2023-03-16T19:29:11.415Z,274.88
2023-03-16T19:34:43.579Z,272.37
2023-03-16T19:40:15.406Z,274.65
2023-03-16T19:45:47.234Z,277.68
2023-03-16T19:51:19.484Z,277.68
2023-03-16T19:56:51.499Z,279.09
2023-03-16T20:02:23.567Z,280.77
2023-03-16T20:07:55.361Z,281.01
2023-03-16T20:13:26.644Z,281.97
2023-03-16T20:18:58.702Z,282.46
2023-03-16T20:24:29.851Z,284.42
2023-03-16T20:30:01.632Z,284.17
2023-03-16T20:35:33.314Z,284.91
2023-03-16T20:41:05.228Z,280.77
2023-03-16T20:46:36.797Z,281.97
2023-03-16T20:52:08.909Z,284.42
2023-03-16T20:57:41.083Z,283.68
2023-03-16T21:03:12.367Z,284.42
2023-03-16T21:08:43.805Z,284.66
2023-03-16T21:14:15.588Z,284.42
2023-03-16T21:19:47.186Z,281.97
2023-03-16T21:25:19.067Z,280.05
2023-03-16T21:30:50.975Z,281.97
2023-03-16T21:36:23.430Z,283.43
2023-03-16T21:41:54.894Z,287.40
2023-03-16T21:47:26.948Z,287.15
2023-03-16T21:52:58.780Z,288.16
2023-03-16T21:58:30.579Z,289.43
2023-03-16T22:04:02.088Z,287.66
2023-03-16T22:09:34.226Z,286.65
2023-03-16T22:15:06.241Z,285.40
2023-03-16T22:20:38.321Z,283.43
2023-03-16T22:26:10.347Z,283.92
2023-03-16T22:31:42.033Z,286.15
2023-03-16T22:37:13.828Z,288.67
2023-03-16T22:42:45.786Z,284.91
2023-03-16T22:48:17.567Z,282.21
2023-03-16T22:53:49.162Z,285.90
2023-03-16T22:59:20.982Z,292.27
2023-03-16T23:04:52.829Z,290.71
2023-03-16T23:10:24.823Z,292.53
2023-03-16T23:15:56.354Z,292.01
2023-03-16T23:21:28.151Z,292.79
2023-03-16T23:26:59.754Z,293.58
2023-03-16T23:32:31.798Z,290.71
2023-03-16T23:38:03.734Z,291.75
2023-03-16T23:43:35.933Z,294.37
2023-03-16T23:49:07.402Z,295.96
2023-03-16T23:54:39.736Z,293.58
